Karin S — V2BM6 — position and weather

sailwx.info

Track history (hours):
 
Tides and Currents Weather Stations Pressure Air Temp Water Temp Dewpoint Dewpoint Depression Visibility Wind Speed Wind Dir Waves Ship Positions

Karin S

Last reported at 2014-Sep-30 16:17 UTC. Time now 2014-Oct-01 05:59 UTC.
Position N 36°49' E 003°05'.

Length 148 m; draft 6.6 m.

Type: Ship. MMSI: 304871000.

Date/timePositionNaut miles runAvg speedWind from/ knotsBaromVisibWave heightAir tempDewpointWater temp
2014-Sep-30 16:17N 36°49' E 003°05'97 4.9
2014-Sep-29 20:27N 37°58' E 001°39'1110.5
2014-Sep-29 19:22N 38°06' E 001°29'10811.0
2014-Sep-29 09:28N 39°23' W 000°10'8 8.9
2014-Sep-29 08:31N 39°26' W 000°19'0 0.0
2014-Sep-29 07:28N 39°26' W 000°19'0 0.0
2014-Sep-29 06:33N 39°26' W 000°19'0 0.0
2014-Sep-29 05:33N 39°26' W 000°19'0 0.0
2014-Sep-29 04:32N 39°26' W 000°19'0 0.0
2014-Sep-29 03:32N 39°26' W 000°19'0 0.0
2014-Sep-29 02:32N 39°26' W 000°19'0 0.0
2014-Sep-29 01:32N 39°26' W 000°19'0 0.0
2014-Sep-29 00:31N 39°26' W 000°19'0 0.0
2014-Sep-28 23:28N 39°26' W 000°19'0 0.0
2014-Sep-28 22:31N 39°26' W 000°19'0 0.0
2014-Sep-28 21:31N 39°26' W 000°19'0 0.0
2014-Sep-28 20:31N 39°26' W 000°19'0 0.4
2014-Sep-28 19:21N 39°26' W 000°19'0 0.0
2014-Sep-28 18:33N 39°26' W 000°19'0 0.0
2014-Sep-28 17:33N 39°26' W 000°19'0 0.0
2014-Sep-28 16:33N 39°26' W 000°19'0 0.0
2014-Sep-28 15:33N 39°26' W 000°19'0 0.0
2014-Sep-28 14:33N 39°26' W 000°19'0 0.0
2014-Sep-28 13:33N 39°26' W 000°19'0 0.0
2014-Sep-28 12:33N 39°26' W 000°19'0 0.0
2014-Sep-28 11:33N 39°26' W 000°19'0 0.0
2014-Sep-28 10:33N 39°26' W 000°19'0 0.0
2014-Sep-28 09:33N 39°26' W 000°19'0 0.0
2014-Sep-28 08:33N 39°26' W 000°19'0 0.0
2014-Sep-28 07:31N 39°26' W 000°19'0 0.0
2014-Sep-28 06:34N 39°26' W 000°19'0 0.0
2014-Sep-28 05:34N 39°26' W 000°19'0 0.0
2014-Sep-28 04:33N 39°26' W 000°19'0 0.0
2014-Sep-28 03:34N 39°26' W 000°19'0 0.0
2014-Sep-28 02:34N 39°26' W 000°19'0 0.0
2014-Sep-28 01:33N 39°26' W 000°19'0 0.0
2014-Sep-28 00:34N 39°26' W 000°19'0 0.0
2014-Sep-27 23:34N 39°26' W 000°19'0 0.0
2014-Sep-27 22:34N 39°26' W 000°19'0 0.0
2014-Sep-27 21:32N 39°26' W 000°19'0 0.0
2014-Sep-27 20:32N 39°26' W 000°19'0 0.0
2014-Sep-27 19:29N 39°26' W 000°19'0 0.0
2014-Sep-27 18:32N 39°26' W 000°19'5 5.1
2014-Sep-27 17:32N 39°24' W 000°13'  
2014-Sep-22 11:21N 36°46' E 003°04'0 0.0
2014-Sep-22 10:33N 36°46' E 003°04'0 0.0
2014-Sep-22 02:13N 36°46' E 003°04'3 0.2
2014-Sep-21 10:33N 36°48' E 003°04'1 0.2
2014-Sep-21 07:24N 36°49' E 003°04'0 0.0
2014-Sep-21 06:27N 36°49' E 003°04'0 0.0
2014-Sep-21 03:21N 36°49' E 003°04'0 0.0
2014-Sep-20 22:05N 36°49' E 003°04'0 0.0
2014-Sep-20 21:29N 36°49' E 003°04'0 0.0
2014-Sep-20 20:26N 36°49' E 003°04'0 0.1
2014-Sep-20 17:32N 36°49' E 003°04'  
Track history (hours):
 
Tides and Currents Weather Stations Pressure Air Temp Water Temp Dewpoint Dewpoint Depression Visibility Wind Speed Wind Dir Waves Ship Positions

Karin S

Last reported at 2014-Sep-30 16:17 UTC. Time now 2014-Oct-01 05:59 UTC.
Position N 36°49' E 003°05'.

Length 148 m; draft 6.6 m.

Type: Ship. MMSI: 304871000.

Date/timePositionNaut miles runAvg speedWind from/ knotsBaromVisibWave heightAir tempDewpointWater temp
2014-Sep-30 16:17N 36°49' E 003°05'97 4.9
2014-Sep-29 20:27N 37°58' E 001°39'1110.5
2014-Sep-29 19:22N 38°06' E 001°29'10811.0
2014-Sep-29 09:28N 39°23' W 000°10'8 8.9
2014-Sep-29 08:31N 39°26' W 000°19'0 0.0
2014-Sep-29 07:28N 39°26' W 000°19'0 0.0
2014-Sep-29 06:33N 39°26' W 000°19'0 0.0
2014-Sep-29 05:33N 39°26' W 000°19'0 0.0
2014-Sep-29 04:32N 39°26' W 000°19'0 0.0
2014-Sep-29 03:32N 39°26' W 000°19'0 0.0
2014-Sep-29 02:32N 39°26' W 000°19'0 0.0
2014-Sep-29 01:32N 39°26' W 000°19'0 0.0
2014-Sep-29 00:31N 39°26' W 000°19'0 0.0
2014-Sep-28 23:28N 39°26' W 000°19'0 0.0
2014-Sep-28 22:31N 39°26' W 000°19'0 0.0
2014-Sep-28 21:31N 39°26' W 000°19'0 0.0
2014-Sep-28 20:31N 39°26' W 000°19'0 0.4
2014-Sep-28 19:21N 39°26' W 000°19'0 0.0
2014-Sep-28 18:33N 39°26' W 000°19'0 0.0
2014-Sep-28 17:33N 39°26' W 000°19'0 0.0
2014-Sep-28 16:33N 39°26' W 000°19'0 0.0
2014-Sep-28 15:33N 39°26' W 000°19'0 0.0
2014-Sep-28 14:33N 39°26' W 000°19'0 0.0
2014-Sep-28 13:33N 39°26' W 000°19'0 0.0
2014-Sep-28 12:33N 39°26' W 000°19'0 0.0
2014-Sep-28 11:33N 39°26' W 000°19'0 0.0
2014-Sep-28 10:33N 39°26' W 000°19'0 0.0
2014-Sep-28 09:33N 39°26' W 000°19'0 0.0
2014-Sep-28 08:33N 39°26' W 000°19'0 0.0
2014-Sep-28 07:31N 39°26' W 000°19'0 0.0
2014-Sep-28 06:34N 39°26' W 000°19'0 0.0
2014-Sep-28 05:34N 39°26' W 000°19'0 0.0
2014-Sep-28 04:33N 39°26' W 000°19'0 0.0
2014-Sep-28 03:34N 39°26' W 000°19'0 0.0
2014-Sep-28 02:34N 39°26' W 000°19'0 0.0
2014-Sep-28 01:33N 39°26' W 000°19'0 0.0
2014-Sep-28 00:34N 39°26' W 000°19'0 0.0
2014-Sep-27 23:34N 39°26' W 000°19'0 0.0
2014-Sep-27 22:34N 39°26' W 000°19'0 0.0
2014-Sep-27 21:32N 39°26' W 000°19'0 0.0
2014-Sep-27 20:32N 39°26' W 000°19'0 0.0
2014-Sep-27 19:29N 39°26' W 000°19'0 0.0
2014-Sep-27 18:32N 39°26' W 000°19'5 5.1
2014-Sep-27 17:32N 39°24' W 000°13'  
2014-Sep-22 11:21N 36°46' E 003°04'0 0.0
2014-Sep-22 10:33N 36°46' E 003°04'0 0.0
2014-Sep-22 02:13N 36°46' E 003°04'3 0.2
2014-Sep-21 10:33N 36°48' E 003°04'1 0.2
2014-Sep-21 07:24N 36°49' E 003°04'0 0.0
2014-Sep-21 06:27N 36°49' E 003°04'0 0.0
2014-Sep-21 03:21N 36°49' E 003°04'0 0.0
2014-Sep-20 22:05N 36°49' E 003°04'0 0.0
2014-Sep-20 21:29N 36°49' E 003°04'0 0.0
2014-Sep-20 20:26N 36°49' E 003°04'0 0.1
2014-Sep-20 17:32N 36°49' E 003°04'  

Dump ship's entire track history